createdAt,value
2024-02-24T00:00:36.461Z,94.52
2024-02-24T00:03:03.255Z,94.69
2024-02-24T00:05:30.116Z,94.49
2024-02-24T00:07:56.852Z,94.87
2024-02-24T00:10:23.799Z,94.77
2024-02-24T00:12:50.521Z,95.27
2024-02-24T00:15:17.229Z,95.55
2024-02-24T00:17:44.153Z,95.61
2024-02-24T00:20:12.261Z,95.40
2024-02-24T00:22:39.170Z,95.37
2024-02-24T00:25:06.428Z,95.37
2024-02-24T00:27:33.148Z,95.25
2024-02-24T00:30:00.454Z,95.64
2024-02-24T00:32:27.367Z,95.78
2024-02-24T00:34:54.074Z,95.76
2024-02-24T00:37:20.765Z,95.52
2024-02-24T00:39:47.446Z,95.56
2024-02-24T00:42:14.121Z,95.33
2024-02-24T00:44:40.837Z,95.69
2024-02-24T00:47:07.570Z,95.34
2024-02-24T00:49:34.297Z,95.85
2024-02-24T00:52:00.973Z,96.23
2024-02-24T00:54:27.679Z,96.12
2024-02-24T00:56:54.360Z,95.96
2024-02-24T00:59:21.042Z,95.79
2024-02-24T01:01:47.975Z,95.96
2024-02-24T01:04:14.788Z,95.70
2024-02-24T01:06:41.600Z,95.63
2024-02-24T01:09:08.297Z,95.76
2024-02-24T01:11:35.205Z,95.81
2024-02-24T01:14:02.216Z,96.02
2024-02-24T01:16:28.970Z,95.44
2024-02-24T01:18:55.771Z,95.43
2024-02-24T01:21:22.778Z,95.54
2024-02-24T01:23:49.665Z,95.49
2024-02-24T01:26:16.447Z,95.39
2024-02-24T01:28:43.589Z,95.75
2024-02-24T01:31:10.716Z,95.97
2024-02-24T01:33:37.577Z,95.54
2024-02-24T01:36:04.665Z,95.44
2024-02-24T01:38:31.380Z,95.35
2024-02-24T01:40:58.133Z,95.51
2024-02-24T01:43:30.458Z,95.59
2024-02-24T01:45:58.012Z,95.86
2024-02-24T01:48:24.922Z,95.97
2024-02-24T01:50:53.110Z,96.26
2024-02-24T01:53:21.554Z,96.01
2024-02-24T01:55:51.143Z,95.96
2024-02-24T01:58:22.104Z,95.62
2024-02-24T02:00:49.002Z,95.68
2024-02-24T02:03:15.637Z,95.77
2024-02-24T02:05:42.560Z,96.08
2024-02-24T02:08:09.257Z,96.49
2024-02-24T02:10:56.425Z,96.23
2024-02-24T02:13:24.203Z,96.52
2024-02-24T02:15:53.044Z,96.36
2024-02-24T02:18:20.682Z,96.23
2024-02-24T02:20:50.979Z,96.84
2024-02-24T02:23:17.625Z,97.03
2024-02-24T02:25:44.547Z,96.83
2024-02-24T02:28:11.033Z,96.77
2024-02-24T02:30:37.549Z,95.91
2024-02-24T02:33:06.013Z,97.08
2024-02-24T02:35:32.844Z,96.65
2024-02-24T02:37:59.446Z,96.95
2024-02-24T02:40:25.964Z,96.97
2024-02-24T02:42:52.492Z,96.86
2024-02-24T02:45:19.013Z,97.00
2024-02-24T02:47:45.632Z,96.71
2024-02-24T02:50:12.238Z,97.08
2024-02-24T02:52:38.796Z,96.80
2024-02-24T02:55:05.680Z,96.80
2024-02-24T02:57:32.175Z,97.37
2024-02-24T02:59:58.756Z,96.90
2024-02-24T03:02:25.388Z,97.70
2024-02-24T03:04:51.986Z,96.92
2024-02-24T03:07:18.493Z,97.63
2024-02-24T03:09:48.620Z,97.59
2024-02-24T03:12:15.872Z,97.54
2024-02-24T03:14:43.444Z,97.35
2024-02-24T03:17:10.082Z,98.14
2024-02-24T03:19:37.183Z,97.94
2024-02-24T03:22:03.811Z,97.61
2024-02-24T03:24:30.353Z,97.93
2024-02-24T03:26:56.882Z,98.19
2024-02-24T03:29:23.393Z,98.31
2024-02-24T03:31:49.912Z,98.01
2024-02-24T03:34:16.435Z,98.05
2024-02-24T03:36:43.968Z,98.24
2024-02-24T03:39:10.464Z,97.92
2024-02-24T03:41:37.178Z,98.22
2024-02-24T03:44:04.003Z,97.82
2024-02-24T03:46:30.681Z,98.25
2024-02-24T03:48:57.421Z,98.21
2024-02-24T03:51:24.234Z,98.33
2024-02-24T03:53:50.959Z,98.24
2024-02-24T03:56:17.704Z,98.78
2024-02-24T03:58:45.286Z,98.30
2024-02-24T04:01:12.448Z,98.22
2024-02-24T04:03:39.208Z,98.35
2024-02-24T04:06:06.770Z,98.36
2024-02-24T04:08:33.588Z,98.09
2024-02-24T04:11:01.155Z,98.41
2024-02-24T04:13:27.883Z,98.44
2024-02-24T04:15:54.585Z,98.14
2024-02-24T04:18:21.586Z,98.25
2024-02-24T04:20:48.700Z,98.20
2024-02-24T04:23:15.728Z,97.89
2024-02-24T04:25:42.637Z,98.69
2024-02-24T04:28:10.074Z,98.46
2024-02-24T04:30:38.805Z,98.00
2024-02-24T04:33:06.148Z,98.30
2024-02-24T04:35:33.050Z,98.42
2024-02-24T04:37:59.764Z,98.39
2024-02-24T04:40:26.851Z,98.30
2024-02-24T04:42:53.676Z,98.34
2024-02-24T04:45:20.333Z,98.93
2024-02-24T04:47:47.113Z,99.11
2024-02-24T04:50:13.912Z,99.20
2024-02-24T04:52:40.614Z,99.33
2024-02-24T04:55:07.691Z,99.10
2024-02-24T04:57:34.381Z,99.41
2024-02-24T05:00:01.146Z,99.33
2024-02-24T05:02:27.867Z,99.12
2024-02-24T05:04:54.580Z,99.36
2024-02-24T05:07:21.332Z,98.99
2024-02-24T05:09:48.030Z,99.35
2024-02-24T05:12:14.782Z,98.70
2024-02-24T05:14:41.636Z,99.16
2024-02-24T05:17:08.994Z,99.03
2024-02-24T05:19:36.006Z,99.34
2024-02-24T05:22:02.702Z,99.09
2024-02-24T05:24:29.334Z,98.73
2024-02-24T05:26:55.897Z,98.54
2024-02-24T05:29:22.487Z,99.23
2024-02-24T05:31:48.989Z,99.04
2024-02-24T05:34:15.587Z,99.00
2024-02-24T05:36:42.224Z,98.94
2024-02-24T05:39:08.955Z,98.64
2024-02-24T05:41:35.574Z,98.34
2024-02-24T05:44:02.155Z,98.58
2024-02-24T05:46:29.540Z,98.72
2024-02-24T05:48:56.105Z,99.19
2024-02-24T05:51:22.925Z,99.12
2024-02-24T05:53:49.928Z,98.90
2024-02-24T05:56:16.959Z,98.94
2024-02-24T05:58:43.719Z,99.12
2024-02-24T06:01:10.392Z,98.72
2024-02-24T06:03:37.248Z,99.00
2024-02-24T06:06:04.137Z,98.64
2024-02-24T06:08:30.851Z,98.64
2024-02-24T06:10:57.368Z,99.64
2024-02-24T06:13:23.997Z,99.71
2024-02-24T06:15:50.484Z,99.51
2024-02-24T06:18:17.180Z,99.89
2024-02-24T06:20:43.904Z,100.00
2024-02-24T06:23:10.524Z,100.00
2024-02-24T06:25:37.062Z,100.00
2024-02-24T06:28:03.819Z,100.00
2024-02-24T06:30:30.332Z,100.00
2024-02-24T06:32:57.018Z,100.00
2024-02-24T06:35:23.667Z,100.00
2024-02-24T06:37:50.192Z,100.00
2024-02-24T06:40:25.663Z,100.00
2024-02-24T06:42:56.468Z,100.00
2024-02-24T06:45:23.001Z,100.00
2024-02-24T06:47:49.628Z,100.00
2024-02-24T06:50:16.495Z,100.00
2024-02-24T06:52:43.365Z,100.00
2024-02-24T06:55:10.067Z,100.00
2024-02-24T06:57:36.575Z,100.00
2024-02-24T07:00:03.444Z,100.00
2024-02-24T07:02:30.053Z,100.00
2024-02-24T07:04:56.603Z,100.00
2024-02-24T07:07:23.237Z,100.00
2024-02-24T07:09:49.747Z,100.00
2024-02-24T07:12:16.327Z,100.00
2024-02-24T07:14:43.080Z,100.00
2024-02-24T07:17:09.859Z,100.00
2024-02-24T07:19:36.614Z,100.00
2024-02-24T07:22:03.357Z,100.00
2024-02-24T07:24:30.106Z,100.00
2024-02-24T07:26:57.395Z,100.00
2024-02-24T07:29:24.288Z,100.00
2024-02-24T07:31:51.032Z,100.00
2024-02-24T07:34:17.877Z,100.00
2024-02-24T07:36:44.656Z,100.00
2024-02-24T07:39:11.415Z,100.00
2024-02-24T07:41:42.357Z,100.00
2024-02-24T07:44:09.390Z,100.00
2024-02-24T07:46:36.173Z,100.00
2024-02-24T07:49:03.182Z,100.00
2024-02-24T07:51:30.582Z,100.00
2024-02-24T07:53:57.485Z,100.00
2024-02-24T07:56:25.414Z,100.00
2024-02-24T07:58:52.491Z,100.00
2024-02-24T08:01:19.380Z,100.00
2024-02-24T08:03:46.494Z,100.00
2024-02-24T08:06:13.234Z,100.00
2024-02-24T08:08:40.007Z,100.00
2024-02-24T08:11:07.654Z,100.00
2024-02-24T08:13:40.241Z,100.00
2024-02-24T08:16:07.698Z,100.00
2024-02-24T08:18:34.588Z,100.00
2024-02-24T08:21:07.665Z,100.00
2024-02-24T08:23:35.602Z,100.00
2024-02-24T08:26:02.698Z,100.00
2024-02-24T08:28:29.562Z,100.00
2024-02-24T08:30:56.967Z,100.00
2024-02-24T08:33:26.941Z,100.00
2024-02-24T08:35:54.570Z,100.00
2024-02-24T08:38:21.553Z,100.00
2024-02-24T08:40:48.375Z,100.00
2024-02-24T08:43:15.148Z,99.18
2024-02-24T08:45:42.910Z,99.50
2024-02-24T08:48:13.387Z,98.92
2024-02-24T08:50:41.724Z,98.53
2024-02-24T08:53:08.637Z,98.57
2024-02-24T08:55:35.397Z,98.14
2024-02-24T08:58:02.120Z,98.05
2024-02-24T09:00:28.834Z,97.98
2024-02-24T09:02:55.632Z,97.52
2024-02-24T09:05:22.483Z,96.93
2024-02-24T09:07:49.356Z,96.86
2024-02-24T09:10:16.239Z,96.64
2024-02-24T09:12:42.958Z,96.99
2024-02-24T09:15:09.936Z,97.05
2024-02-24T09:17:36.851Z,96.92
2024-02-24T09:20:04.559Z,96.14
2024-02-24T09:22:31.296Z,96.25
2024-02-24T09:24:57.778Z,96.50
2024-02-24T09:27:24.285Z,95.51
2024-02-24T09:29:50.881Z,94.59
2024-02-24T09:32:18.942Z,93.47
2024-02-24T09:34:46.039Z,92.66
2024-02-24T09:37:12.720Z,93.20
2024-02-24T09:39:41.432Z,91.64
2024-02-24T09:42:10.478Z,91.71
2024-02-24T09:44:37.685Z,89.76
2024-02-24T09:47:05.004Z,88.67
2024-02-24T09:49:32.160Z,89.07
2024-02-24T09:51:59.999Z,88.90
2024-02-24T09:54:28.686Z,89.55
2024-02-24T09:56:56.349Z,88.99
2024-02-24T09:59:24.071Z,88.69
2024-02-24T10:01:51.322Z,87.41
2024-02-24T10:04:18.946Z,87.54
2024-02-24T10:06:45.664Z,88.01
2024-02-24T10:09:13.375Z,87.77
2024-02-24T10:11:40.987Z,87.37
2024-02-24T10:14:07.980Z,86.79
2024-02-24T10:16:38.963Z,86.64
2024-02-24T10:19:06.880Z,86.80
2024-02-24T10:21:34.810Z,85.96
2024-02-24T10:24:01.944Z,85.37
2024-02-24T10:26:28.856Z,85.64
2024-02-24T10:28:55.505Z,86.24
2024-02-24T10:31:27.931Z,86.34
2024-02-24T10:33:56.047Z,85.37
2024-02-24T10:36:23.363Z,85.31
2024-02-24T10:38:56.004Z,84.67
2024-02-24T10:41:25.761Z,84.00
2024-02-24T10:44:02.557Z,84.27
2024-02-24T10:46:37.316Z,84.23
2024-02-24T10:49:05.435Z,83.85
2024-02-24T10:51:35.655Z,84.10
2024-02-24T10:54:11.308Z,83.19
2024-02-24T10:56:38.153Z,82.25
2024-02-24T10:59:12.028Z,82.39
2024-02-24T11:01:43.375Z,81.84
2024-02-24T11:04:12.490Z,81.55
2024-02-24T11:06:53.548Z,80.35
2024-02-24T11:09:27.411Z,78.62
2024-02-24T11:12:04.325Z,79.90
2024-02-24T11:14:35.975Z,80.47
2024-02-24T11:17:04.243Z,80.01
2024-02-24T11:19:45.029Z,80.05
2024-02-24T11:22:22.203Z,80.33
2024-02-24T11:25:16.344Z,80.06
2024-02-24T11:27:43.783Z,79.81
2024-02-24T11:30:39.487Z,74.61
2024-02-24T11:33:22.536Z,77.23
2024-02-24T11:35:51.193Z,76.42
2024-02-24T11:38:18.573Z,75.21
2024-02-24T11:40:47.820Z,76.45
2024-02-24T11:43:15.192Z,75.51
2024-02-24T11:45:52.549Z,75.85
2024-02-24T11:48:20.599Z,75.32
2024-02-24T11:50:48.651Z,75.51
2024-02-24T11:53:16.921Z,75.11
2024-02-24T11:55:44.507Z,74.92
2024-02-24T11:58:11.243Z,75.11
2024-02-24T12:00:38.917Z,73.10
2024-02-24T12:03:10.298Z,74.05
2024-02-24T12:05:37.029Z,73.73
2024-02-24T12:08:06.140Z,74.82
2024-02-24T12:10:39.995Z,74.42
2024-02-24T12:13:09.431Z,74.40
2024-02-24T12:15:36.685Z,73.84
2024-02-24T12:18:06.920Z,73.81
2024-02-24T12:20:41.769Z,73.94
2024-02-24T12:23:10.257Z,73.69
2024-02-24T12:25:37.855Z,74.08
2024-02-24T12:28:05.553Z,74.85
2024-02-24T12:30:37.171Z,74.91
2024-02-24T12:33:06.395Z,75.27
2024-02-24T12:35:33.684Z,74.81
2024-02-24T12:38:00.264Z,75.60
2024-02-24T12:40:29.229Z,75.52
2024-02-24T12:42:56.053Z,75.40
2024-02-24T12:45:23.131Z,74.41
2024-02-24T12:47:53.222Z,74.70
2024-02-24T12:50:21.235Z,75.28
2024-02-24T12:52:48.677Z,75.23
2024-02-24T12:55:16.504Z,75.37
2024-02-24T12:57:43.517Z,74.29
2024-02-24T13:00:11.775Z,74.74
2024-02-24T13:02:38.927Z,74.22
2024-02-24T13:05:06.695Z,74.07
2024-02-24T13:07:33.695Z,74.04
2024-02-24T13:10:01.122Z,73.80
2024-02-24T13:12:27.948Z,73.56
2024-02-24T13:14:54.575Z,72.23
2024-02-24T13:17:22.938Z,73.33
2024-02-24T13:19:52.623Z,73.90
2024-02-24T13:22:20.020Z,74.48
2024-02-24T13:24:46.795Z,73.86
2024-02-24T13:27:13.461Z,73.69
2024-02-24T13:29:40.066Z,73.83
2024-02-24T13:32:07.394Z,74.33
2024-02-24T13:34:34.124Z,74.09
2024-02-24T13:37:00.867Z,74.48
2024-02-24T13:39:27.566Z,72.50
2024-02-24T13:41:55.168Z,73.42
2024-02-24T13:44:22.333Z,72.49
2024-02-24T13:46:49.669Z,72.90
2024-02-24T13:49:19.063Z,73.01
2024-02-24T13:51:46.742Z,73.28
2024-02-24T13:54:13.588Z,72.71
2024-02-24T13:56:40.749Z,73.10
2024-02-24T13:59:07.963Z,72.36
2024-02-24T14:01:34.940Z,72.95
2024-02-24T14:04:03.321Z,72.89
2024-02-24T14:06:30.139Z,73.59
2024-02-24T14:08:57.053Z,72.32
2024-02-24T14:11:25.417Z,72.05
2024-02-24T14:13:52.290Z,72.85
2024-02-24T14:16:19.411Z,73.50
2024-02-24T14:18:46.176Z,71.01
2024-02-24T14:21:12.836Z,71.54
2024-02-24T14:23:39.804Z,72.21
2024-02-24T14:26:06.423Z,72.50
2024-02-24T14:28:33.019Z,72.70
2024-02-24T14:30:59.530Z,72.88
2024-02-24T14:33:26.362Z,73.07
2024-02-24T14:35:53.127Z,73.71
2024-02-24T14:38:19.768Z,74.13
2024-02-24T14:40:50.078Z,74.28
2024-02-24T14:43:16.978Z,74.45
2024-02-24T14:45:43.524Z,74.53
2024-02-24T14:48:10.143Z,74.53
2024-02-24T14:50:36.809Z,74.22
2024-02-24T14:53:03.571Z,75.53
2024-02-24T14:55:30.060Z,78.00
2024-02-24T14:57:56.866Z,79.70
2024-02-24T15:00:24.033Z,82.82
2024-02-24T15:03:04.320Z,85.26
2024-02-24T15:05:36.725Z,87.47
2024-02-24T15:08:03.590Z,87.08
2024-02-24T15:10:30.155Z,87.77
2024-02-24T15:12:56.671Z,88.39
2024-02-24T15:15:23.344Z,90.02
2024-02-24T15:17:53.070Z,90.13
2024-02-24T15:20:19.970Z,90.05
2024-02-24T15:22:48.290Z,90.52
2024-02-24T15:25:15.718Z,91.01
2024-02-24T15:27:42.310Z,91.37
2024-02-24T15:30:10.131Z,92.06
2024-02-24T15:32:36.725Z,93.51
2024-02-24T15:35:03.654Z,94.76
2024-02-24T15:40:18.510Z,94.92
2024-02-24T15:42:45.003Z,94.93
2024-02-24T15:45:11.522Z,95.29
2024-02-24T15:47:38.144Z,95.44
2024-02-24T15:50:05.072Z,95.71
2024-02-24T15:52:31.596Z,95.89
2024-02-24T15:54:58.138Z,96.25
2024-02-24T15:57:24.620Z,96.56
2024-02-24T15:59:51.389Z,96.17
2024-02-24T16:02:18.156Z,96.48
2024-02-24T16:04:45.974Z,96.88
2024-02-24T16:07:12.742Z,97.17
2024-02-24T16:09:39.468Z,96.66
2024-02-24T16:12:06.712Z,96.71
2024-02-24T16:14:33.527Z,96.89
2024-02-24T16:17:00.349Z,97.08
2024-02-24T16:19:27.326Z,97.03
2024-02-24T16:21:54.046Z,97.64
2024-02-24T16:24:21.038Z,97.62
2024-02-24T16:26:51.182Z,97.86
2024-02-24T16:29:18.020Z,98.62
2024-02-24T16:31:44.697Z,98.51
2024-02-24T16:34:11.726Z,98.97
2024-02-24T16:36:38.573Z,98.77
2024-02-24T16:39:05.474Z,99.14
2024-02-24T16:41:32.546Z,99.20
2024-02-24T16:43:59.249Z,99.65
2024-02-24T16:46:26.014Z,99.91
2024-02-24T16:48:53.912Z,100.00
2024-02-24T16:51:20.705Z,100.00
2024-02-24T16:53:47.496Z,100.00
2024-02-24T16:56:14.200Z,100.00
2024-02-24T16:58:41.489Z,100.00
2024-02-24T17:01:08.333Z,100.00
2024-02-24T17:03:35.081Z,100.00
2024-02-24T17:06:02.527Z,100.00
2024-02-24T17:08:29.338Z,100.00
2024-02-24T17:10:56.108Z,100.00
2024-02-24T17:13:22.902Z,100.00
2024-02-24T17:15:49.588Z,100.00
2024-02-24T17:18:18.618Z,100.00
2024-02-24T17:20:50.375Z,100.00
2024-02-24T17:23:17.145Z,100.00
2024-02-24T17:25:43.872Z,100.00
2024-02-24T17:28:10.901Z,100.00
2024-02-24T17:30:37.702Z,100.00
2024-02-24T17:33:05.177Z,100.00
2024-02-24T17:35:32.250Z,100.00
2024-02-24T17:37:59.856Z,100.00
2024-02-24T17:40:26.701Z,100.00
2024-02-24T17:42:53.389Z,100.00
2024-02-24T17:45:20.173Z,100.00
2024-02-24T17:47:46.967Z,100.00
2024-02-24T17:50:13.721Z,100.00
2024-02-24T17:52:41.755Z,100.00
2024-02-24T17:55:08.886Z,100.00
2024-02-24T17:57:35.587Z,100.00
2024-02-24T18:00:04.923Z,100.00
2024-02-24T18:02:31.650Z,100.00
2024-02-24T18:04:58.338Z,100.00
2024-02-24T18:07:26.471Z,100.00
2024-02-24T18:09:53.444Z,100.00
2024-02-24T18:12:20.271Z,100.00
2024-02-24T18:14:47.150Z,100.00
2024-02-24T18:17:13.985Z,100.00
2024-02-24T18:19:40.735Z,100.00
2024-02-24T18:22:07.477Z,100.00
2024-02-24T18:24:34.151Z,100.00
2024-02-24T18:27:02.649Z,100.00
2024-02-24T18:29:29.458Z,100.00
2024-02-24T18:31:56.161Z,100.00
2024-02-24T18:34:23.003Z,100.00
2024-02-24T18:36:49.795Z,100.00
2024-02-24T18:39:16.484Z,100.00
2024-02-24T18:41:44.036Z,100.00
2024-02-24T18:44:11.062Z,100.00
2024-02-24T18:46:37.745Z,100.00
2024-02-24T18:49:04.564Z,100.00
2024-02-24T18:51:31.346Z,100.00
2024-02-24T18:53:58.150Z,100.00
2024-02-24T18:56:26.306Z,100.00
2024-02-24T18:58:53.268Z,100.00
2024-02-24T19:01:20.023Z,100.00
2024-02-24T19:03:46.883Z,100.00
2024-02-24T19:06:14.176Z,100.00
2024-02-24T19:08:40.928Z,100.00
2024-02-24T19:11:07.676Z,100.00
2024-02-24T19:13:34.420Z,100.00
2024-02-24T19:16:01.137Z,100.00
2024-02-24T19:18:28.005Z,100.00
2024-02-24T19:20:54.885Z,100.00
2024-02-24T19:23:22.044Z,100.00
2024-02-24T19:25:49.350Z,100.00
2024-02-24T19:28:17.111Z,100.00
2024-02-24T19:30:43.847Z,100.00
2024-02-24T19:33:10.794Z,100.00
2024-02-24T19:35:40.233Z,100.00
2024-02-24T19:38:08.219Z,100.00
2024-02-24T19:40:35.040Z,100.00
2024-02-24T19:43:01.720Z,100.00
2024-02-24T19:45:28.454Z,100.00
2024-02-24T19:47:55.247Z,100.00
2024-02-24T19:50:22.113Z,100.00
2024-02-24T19:52:48.887Z,100.00
2024-02-24T19:55:16.153Z,100.00
2024-02-24T19:57:43.287Z,100.00
2024-02-24T20:00:10.643Z,100.00
2024-02-24T20:02:38.042Z,100.00
2024-02-24T20:05:05.231Z,100.00
2024-02-24T20:07:32.082Z,100.00
2024-02-24T20:09:59.004Z,100.00
2024-02-24T20:12:25.752Z,100.00
2024-02-24T20:14:52.742Z,100.00
2024-02-24T20:17:19.607Z,100.00
2024-02-24T20:19:47.126Z,100.00
2024-02-24T20:22:14.567Z,100.00
2024-02-24T20:24:41.414Z,100.00
2024-02-24T20:27:08.511Z,100.00
2024-02-24T20:29:35.267Z,100.00
2024-02-24T20:32:02.030Z,100.00
2024-02-24T20:34:28.880Z,100.00
2024-02-24T20:36:55.670Z,100.00
2024-02-24T20:39:22.357Z,100.00
2024-02-24T20:41:49.106Z,100.00
2024-02-24T20:44:18.334Z,100.00
2024-02-24T20:46:45.866Z,100.00
2024-02-24T20:49:13.981Z,100.00
2024-02-24T20:51:40.831Z,100.00
2024-02-24T20:54:07.716Z,100.00
2024-02-24T20:56:34.545Z,100.00
2024-02-24T20:59:01.229Z,100.00
2024-02-24T21:01:28.368Z,100.00
2024-02-24T21:03:55.216Z,100.00
2024-02-24T21:06:22.051Z,100.00
2024-02-24T21:08:48.890Z,100.00
2024-02-24T21:11:15.786Z,100.00
2024-02-24T21:13:42.470Z,100.00
2024-02-24T21:16:09.487Z,100.00
2024-02-24T21:18:36.505Z,100.00
2024-02-24T21:21:03.487Z,100.00
2024-02-24T21:23:30.306Z,100.00
2024-02-24T21:25:57.029Z,100.00
2024-02-24T21:28:23.805Z,100.00
2024-02-24T21:30:50.643Z,100.00
2024-02-24T21:33:17.849Z,100.00
2024-02-24T21:35:44.816Z,100.00
2024-02-24T21:41:00.110Z,100.00
2024-02-24T21:43:26.873Z,100.00
2024-02-24T21:45:53.584Z,100.00
2024-02-24T21:48:22.251Z,100.00
2024-02-24T21:50:49.913Z,100.00
2024-02-24T21:53:16.647Z,100.00
2024-02-24T21:55:43.321Z,100.00
2024-02-24T21:58:10.010Z,100.00
2024-02-24T22:00:37.072Z,100.00
2024-02-24T22:03:04.922Z,100.00
2024-02-24T22:05:31.730Z,100.00
2024-02-24T22:07:58.470Z,100.00
2024-02-24T22:10:25.346Z,100.00
2024-02-24T22:12:52.049Z,100.00
2024-02-24T22:15:19.623Z,100.00
2024-02-24T22:17:47.295Z,100.00
2024-02-24T22:20:14.393Z,100.00
2024-02-24T22:22:41.120Z,100.00
2024-02-24T22:25:08.696Z,100.00
2024-02-24T22:27:35.731Z,100.00
2024-02-24T22:30:08.999Z,100.00
2024-02-24T22:32:43.233Z,100.00
2024-02-24T22:35:10.254Z,100.00
2024-02-24T22:37:38.108Z,100.00
2024-02-24T22:40:05.445Z,100.00
2024-02-24T22:42:34.372Z,100.00
2024-02-24T22:45:02.689Z,100.00
2024-02-24T22:47:30.022Z,100.00
2024-02-24T22:49:56.959Z,100.00
2024-02-24T22:52:23.795Z,100.00
2024-02-24T22:54:50.945Z,100.00
2024-02-24T22:57:17.769Z,100.00
2024-02-24T22:59:44.553Z,100.00
2024-02-24T23:02:11.285Z,100.00
2024-02-24T23:04:38.530Z,100.00
2024-02-24T23:07:05.607Z,100.00
2024-02-24T23:09:32.377Z,100.00
2024-02-24T23:11:59.187Z,100.00
2024-02-24T23:14:26.062Z,100.00
2024-02-24T23:16:52.759Z,100.00
2024-02-24T23:19:21.079Z,100.00
2024-02-24T23:21:47.951Z,100.00
2024-02-24T23:24:14.689Z,100.00
2024-02-24T23:26:41.442Z,100.00
2024-02-24T23:29:08.467Z,100.00
2024-02-24T23:31:35.236Z,100.00
2024-02-24T23:34:02.212Z,100.00
2024-02-24T23:36:29.137Z,100.00
2024-02-24T23:38:55.903Z,100.00
2024-02-24T23:41:22.642Z,100.00
2024-02-24T23:43:49.344Z,100.00
2024-02-24T23:46:16.062Z,100.00
2024-02-24T23:48:44.726Z,100.00
2024-02-24T23:51:11.700Z,100.00
2024-02-24T23:53:39.423Z,100.00
2024-02-24T23:56:06.539Z,100.00
2024-02-24T23:58:33.233Z,100.00
